createdAt,value
2022-10-26T00:01:10.406Z,3.67
2022-10-26T00:03:38.989Z,3.72
2022-10-26T00:06:09.875Z,3.60
2022-10-26T00:08:37.928Z,3.78
2022-10-26T00:11:06.112Z,4.20
2022-10-26T00:13:34.279Z,3.83
2022-10-26T00:16:02.653Z,3.75
2022-10-26T00:18:29.870Z,3.85
2022-10-26T00:21:04.431Z,3.85
2022-10-26T00:53:33.570Z,3.95
2022-10-26T00:56:01.097Z,3.90
2022-10-26T00:58:28.604Z,4.05
2022-10-26T01:00:55.998Z,3.97
2022-10-26T01:03:25.509Z,3.90
2022-10-26T01:05:56.876Z,4.03
2022-10-26T01:08:24.033Z,4.00
2022-10-26T01:10:51.764Z,4.00
2022-10-26T01:13:19.072Z,3.85
2022-10-26T01:16:13.746Z,3.88
2022-10-26T01:18:58.913Z,3.92
2022-10-26T01:21:43.414Z,4.18
2022-10-26T01:24:10.341Z,5.07
2022-10-26T01:26:49.122Z,3.90
2022-10-26T01:29:34.127Z,4.18
2022-10-26T01:32:08.468Z,4.57
2022-10-26T01:34:50.329Z,4.50
2022-10-26T01:37:26.893Z,4.43
2022-10-26T01:40:00.175Z,3.90
2022-10-26T01:42:28.640Z,4.05
2022-10-26T01:45:04.783Z,3.92
2022-10-26T01:47:34.274Z,4.45
2022-10-26T01:50:02.464Z,4.35
2022-10-26T01:52:29.457Z,3.75
2022-10-26T01:55:27.101Z,3.88
2022-10-26T01:57:59.375Z,3.92
2022-10-26T02:00:26.158Z,3.80
2022-10-26T02:03:07.543Z,4.15
2022-10-26T02:05:54.473Z,3.67
2022-10-26T02:11:10.135Z,3.85
2022-10-26T02:13:57.635Z,4.10
2022-10-26T02:16:37.910Z,4.50
2022-10-26T02:19:26.027Z,4.28
2022-10-26T02:22:15.717Z,4.28
2022-10-26T02:24:43.949Z,3.90
2022-10-26T02:27:16.531Z,4.40
2022-10-26T02:29:44.205Z,4.20
2022-10-26T02:32:12.760Z,4.50
2022-10-26T02:34:41.170Z,4.35
2022-10-26T02:37:09.124Z,4.50
2022-10-26T02:39:39.179Z,3.95
2022-10-26T02:42:09.393Z,4.30
2022-10-26T02:44:49.196Z,4.40
2022-10-26T02:47:17.897Z,4.40
2022-10-26T02:49:44.906Z,4.25
2022-10-26T02:52:17.369Z,4.93
2022-10-26T02:54:53.266Z,4.68
2022-10-26T02:57:25.855Z,4.55
2022-10-26T02:59:54.071Z,4.50
2022-10-26T03:02:22.337Z,4.32
2022-10-26T03:04:51.016Z,4.63
2022-10-26T03:07:22.861Z,4.70
2022-10-26T03:09:49.757Z,4.40
2022-10-26T03:12:16.870Z,4.47
2022-10-26T03:14:45.109Z,3.97
2022-10-26T03:17:12.066Z,4.57
2022-10-26T03:19:38.918Z,4.53
2022-10-26T03:22:05.824Z,4.68
2022-10-26T03:24:32.619Z,4.82
2022-10-26T03:27:02.046Z,4.68
2022-10-26T03:29:29.334Z,4.40
2022-10-26T03:31:56.265Z,4.85
2022-10-26T03:34:23.131Z,4.88
2022-10-26T03:36:49.974Z,4.35
2022-10-26T03:39:16.744Z,4.45
2022-10-26T03:41:44.407Z,5.22
2022-10-26T03:44:11.304Z,4.63
2022-10-26T03:46:38.066Z,4.68
2022-10-26T03:49:05.085Z,5.18
2022-10-26T03:51:32.199Z,5.00
2022-10-26T03:53:59.102Z,4.85
2022-10-26T03:56:26.926Z,4.97
2022-10-26T03:58:53.923Z,4.63
2022-10-26T04:01:20.846Z,4.80
2022-10-26T04:03:48.138Z,4.72
2022-10-26T04:06:15.140Z,4.78
2022-10-26T04:08:42.083Z,4.80
2022-10-26T04:11:09.040Z,4.78
2022-10-26T04:13:35.892Z,4.80
2022-10-26T04:16:02.754Z,4.43
2022-10-26T04:18:29.765Z,4.43
2022-10-26T04:20:56.708Z,4.53
2022-10-26T04:25:55.675Z,4.28
2022-10-26T04:28:22.408Z,5.78
2022-10-26T04:30:49.257Z,4.95
2022-10-26T04:33:16.510Z,4.60
2022-10-26T04:35:43.466Z,4.80
2022-10-26T04:38:10.711Z,4.20
2022-10-26T04:40:37.800Z,4.45
2022-10-26T04:43:04.627Z,4.57
2022-10-26T04:45:31.603Z,4.43
2022-10-26T04:48:06.814Z,4.40
2022-10-26T04:50:34.634Z,4.70
2022-10-26T04:53:01.585Z,4.25
2022-10-26T04:55:28.547Z,5.20
2022-10-26T04:57:57.253Z,5.20
2022-10-26T05:00:27.372Z,4.90
2022-10-26T05:03:00.152Z,4.47
2022-10-26T05:05:27.221Z,4.30
2022-10-26T05:07:56.042Z,5.15
2022-10-26T05:10:24.017Z,4.85
2022-10-26T05:12:52.371Z,4.43
2022-10-26T05:15:19.192Z,4.65
2022-10-26T05:17:46.597Z,4.15
2022-10-26T05:20:14.263Z,4.53
2022-10-26T05:22:41.523Z,4.93
2022-10-26T05:25:09.155Z,4.50
2022-10-26T05:27:35.967Z,4.38
2022-10-26T05:30:02.920Z,5.40
2022-10-26T05:32:29.864Z,5.10
2022-10-26T05:34:56.645Z,4.47
2022-10-26T05:37:23.472Z,4.50
2022-10-26T05:39:50.556Z,4.72
2022-10-26T05:42:17.342Z,4.30
2022-10-26T05:44:44.247Z,4.55
2022-10-26T05:47:11.493Z,4.78
2022-10-26T05:49:38.360Z,4.38
2022-10-26T05:52:05.975Z,4.82
2022-10-26T05:54:32.881Z,5.07
2022-10-26T05:57:00.195Z,4.97
2022-10-26T05:59:27.316Z,4.97
2022-10-26T06:02:33.611Z,5.40
2022-10-26T06:05:05.205Z,4.80
2022-10-26T06:07:33.707Z,4.70
2022-10-26T06:10:01.859Z,5.20
2022-10-26T06:12:29.145Z,5.38
2022-10-26T06:14:56.451Z,4.95
2022-10-26T06:17:32.629Z,4.75
2022-10-26T06:20:14.517Z,4.73
2022-10-26T06:23:05.862Z,4.78
2022-10-26T06:25:51.391Z,5.15
2022-10-26T06:28:50.962Z,5.25
2022-10-26T06:31:18.381Z,4.90
2022-10-26T06:33:45.674Z,4.72
2022-10-26T06:36:18.875Z,5.13
2022-10-26T06:38:48.338Z,4.68
2022-10-26T06:41:16.320Z,4.90
2022-10-26T06:43:43.427Z,4.90
2022-10-26T06:46:28.204Z,4.88
2022-10-26T06:49:06.446Z,4.68
2022-10-26T06:51:43.712Z,4.82
2022-10-26T06:54:33.957Z,4.82
2022-10-26T06:57:01.075Z,4.72
2022-10-26T06:59:40.351Z,4.90
2022-10-26T07:02:08.729Z,4.60
2022-10-26T07:04:35.572Z,4.47
2022-10-26T07:07:02.885Z,4.70
2022-10-26T07:09:29.755Z,4.80
2022-10-26T07:11:56.639Z,4.70
2022-10-26T07:14:23.582Z,5.05
2022-10-26T07:16:50.463Z,4.88
2022-10-26T07:19:17.489Z,5.03
2022-10-26T07:21:44.264Z,5.03
2022-10-26T07:24:11.088Z,5.30
2022-10-26T07:26:37.897Z,4.80
2022-10-26T07:29:04.665Z,4.90
2022-10-26T07:31:31.745Z,5.07
2022-10-26T07:33:58.608Z,4.80
2022-10-26T07:36:25.450Z,5.20
2022-10-26T07:38:57.094Z,4.45
2022-10-26T07:41:26.790Z,5.15
2022-10-26T07:43:53.768Z,4.85
2022-10-26T07:46:20.505Z,4.57
2022-10-26T07:48:47.594Z,5.13
2022-10-26T07:51:15.074Z,4.68
2022-10-26T07:53:42.026Z,5.15
2022-10-26T07:56:10.566Z,5.00
2022-10-26T07:58:37.402Z,5.18
2022-10-26T08:01:09.379Z,4.70
2022-10-26T08:03:36.592Z,5.10
2022-10-26T08:06:05.076Z,4.80
2022-10-26T08:08:34.471Z,4.68
2022-10-26T08:11:01.348Z,4.40
2022-10-26T08:13:29.252Z,4.70
2022-10-26T08:16:05.023Z,4.30
2022-10-26T08:18:32.206Z,4.10
2022-10-26T08:21:11.605Z,4.50
2022-10-26T08:23:40.657Z,4.72
2022-10-26T08:26:08.179Z,3.90
2022-10-26T08:28:34.999Z,4.03
2022-10-26T08:31:01.737Z,3.40
2022-10-26T08:33:28.541Z,3.70
2022-10-26T08:35:59.878Z,3.55
2022-10-26T08:38:28.462Z,3.78
2022-10-26T08:40:57.770Z,3.35
2022-10-26T08:43:53.081Z,3.80
2022-10-26T08:46:27.124Z,3.90
2022-10-26T08:49:06.636Z,3.38
2022-10-26T08:51:37.551Z,3.65
2022-10-26T08:54:26.126Z,4.18
2022-10-26T08:56:57.735Z,3.42
2022-10-26T08:59:38.023Z,3.25
2022-10-26T09:02:12.920Z,3.63
2022-10-26T09:04:39.764Z,3.17
2022-10-26T09:07:31.330Z,3.83
2022-10-26T09:10:08.471Z,3.80
2022-10-26T09:12:57.395Z,3.55
2022-10-26T09:15:33.292Z,3.30
2022-10-26T09:18:24.844Z,3.70
2022-10-26T09:21:22.459Z,3.53
2022-10-26T09:24:07.325Z,3.25
2022-10-26T09:26:53.566Z,3.00
2022-10-26T09:29:24.616Z,3.28
2022-10-26T09:31:51.585Z,2.90
2022-10-26T09:34:45.222Z,3.20
2022-10-26T09:37:23.587Z,3.30
2022-10-26T09:40:00.854Z,3.20
2022-10-26T09:42:42.646Z,3.00
2022-10-26T09:45:23.183Z,3.10
2022-10-26T09:47:53.768Z,3.20
2022-10-26T09:50:36.366Z,3.28
2022-10-26T09:53:04.324Z,2.88
2022-10-26T09:55:43.146Z,3.03
2022-10-26T09:58:16.543Z,3.30
2022-10-26T10:00:45.108Z,2.80
2022-10-26T10:03:20.758Z,2.95
2022-10-26T10:05:52.507Z,2.40
2022-10-26T10:08:23.491Z,2.30
2022-10-26T10:11:07.119Z,2.55
2022-10-26T10:13:38.021Z,2.50
2022-10-26T10:16:06.570Z,2.60
2022-10-26T10:18:33.870Z,2.50
2022-10-26T10:21:01.453Z,2.80
2022-10-26T10:23:49.804Z,2.88
2022-10-26T10:26:16.699Z,2.92
2022-10-26T10:28:55.569Z,2.53
2022-10-26T10:31:31.049Z,2.55
2022-10-26T10:33:59.671Z,2.60
2022-10-26T10:36:32.362Z,2.55
2022-10-26T10:39:20.134Z,2.33
2022-10-26T10:41:47.855Z,2.45
2022-10-26T10:44:22.659Z,2.40
2022-10-26T10:46:49.783Z,2.67
2022-10-26T10:49:24.905Z,2.58
2022-10-26T10:51:52.155Z,2.58
2022-10-26T10:54:22.461Z,2.60
2022-10-26T10:57:16.078Z,2.53
2022-10-26T11:00:05.766Z,2.80
2022-10-26T11:02:59.888Z,2.58
2022-10-26T11:05:51.028Z,2.80
2022-10-26T11:08:23.907Z,2.80
2022-10-26T11:11:05.586Z,2.63
2022-10-26T11:13:55.193Z,2.55
2022-10-26T11:16:33.417Z,2.63
2022-10-26T11:19:26.027Z,2.70
2022-10-26T11:21:56.739Z,2.60
2022-10-26T11:24:44.863Z,2.70
2022-10-26T11:27:19.116Z,2.78
2022-10-26T11:29:56.820Z,5.38
2022-10-26T11:32:32.468Z,4.40
2022-10-26T11:35:14.356Z,5.20
2022-10-26T11:38:05.581Z,4.03
2022-10-26T11:40:54.873Z,2.63
2022-10-26T11:43:41.862Z,2.58
2022-10-26T11:46:19.264Z,2.40
2022-10-26T11:49:17.443Z,2.78
2022-10-26T11:51:55.337Z,2.30
2022-10-26T11:54:29.724Z,2.33
2022-10-26T11:56:58.460Z,2.42
2022-10-26T11:59:33.550Z,2.33
2022-10-26T12:02:11.243Z,2.33
2022-10-26T12:04:43.308Z,2.08
2022-10-26T12:07:20.247Z,2.28
2022-10-26T12:09:47.129Z,2.40
2022-10-26T12:12:26.884Z,2.20
2022-10-26T12:15:13.307Z,2.40
2022-10-26T12:18:11.440Z,2.67
2022-10-26T12:21:05.025Z,2.20
2022-10-26T12:23:40.877Z,2.47
2022-10-26T12:26:24.517Z,2.22
2022-10-26T12:29:06.743Z,1.95
2022-10-26T12:31:36.373Z,2.53
2022-10-26T12:34:14.990Z,2.22
2022-10-26T12:36:57.049Z,2.35
2022-10-26T12:39:32.155Z,2.47
2022-10-26T12:42:10.184Z,2.50
2022-10-26T12:44:48.671Z,2.08
2022-10-26T12:47:27.810Z,1.83
2022-10-26T12:50:09.664Z,1.98
2022-10-26T12:52:50.063Z,2.10
2022-10-26T12:55:43.636Z,1.80
2022-10-26T12:58:18.774Z,1.60
2022-10-26T13:01:34.211Z,2.20
2022-10-26T13:04:46.988Z,1.77
2022-10-26T13:07:24.402Z,1.58
2022-10-26T13:12:48.913Z,1.75
2022-10-26T13:15:43.566Z,1.60
2022-10-26T13:18:10.816Z,1.60
2022-10-26T13:21:05.398Z,1.30
2022-10-26T13:23:43.394Z,2.08
2022-10-26T13:26:26.560Z,1.58
2022-10-26T13:28:58.322Z,1.40
2022-10-26T13:31:31.663Z,1.50
2022-10-26T13:34:21.396Z,1.50
2022-10-26T13:37:14.400Z,1.38
2022-10-26T13:39:48.231Z,1.38
2022-10-26T13:42:24.399Z,1.50
2022-10-26T13:45:03.372Z,1.42
2022-10-26T13:47:56.686Z,1.40
2022-10-26T13:50:32.035Z,1.35
2022-10-26T13:53:08.600Z,1.30
2022-10-26T13:55:50.524Z,1.33
2022-10-26T13:58:20.738Z,1.48
2022-10-26T14:01:21.529Z,1.60
2022-10-26T14:03:51.308Z,1.48
2022-10-26T14:06:38.566Z,1.52
2022-10-26T14:09:12.392Z,1.50
2022-10-26T14:12:00.742Z,1.58
2022-10-26T14:14:36.647Z,1.40
2022-10-26T14:17:05.211Z,1.58
2022-10-26T14:19:38.283Z,1.67
2022-10-26T14:22:05.729Z,1.52
2022-10-26T14:24:46.982Z,2.22
2022-10-26T14:27:19.391Z,1.60
2022-10-26T14:30:03.788Z,1.58
2022-10-26T14:32:37.059Z,1.50
2022-10-26T14:35:04.043Z,1.65
2022-10-26T14:37:53.980Z,1.40
2022-10-26T14:40:24.528Z,1.50
2022-10-26T14:42:54.978Z,1.27
2022-10-26T14:45:30.136Z,1.33
2022-10-26T14:48:26.066Z,1.50
2022-10-26T14:51:08.147Z,1.50
2022-10-26T14:53:38.842Z,1.75
2022-10-26T14:56:24.590Z,1.42
2022-10-26T14:58:52.941Z,1.67
2022-10-26T15:01:22.757Z,1.45
2022-10-26T15:03:54.810Z,1.52
2022-10-26T15:06:27.882Z,1.40
2022-10-26T15:08:59.799Z,1.40
2022-10-26T15:11:28.062Z,1.67
2022-10-26T15:13:56.547Z,1.30
2022-10-26T15:16:26.101Z,1.77
2022-10-26T15:19:14.251Z,1.23
2022-10-26T15:21:47.729Z,1.50
2022-10-26T15:24:27.924Z,1.20
2022-10-26T15:26:55.330Z,1.40
2022-10-26T15:29:41.604Z,1.33
2022-10-26T15:32:41.231Z,1.10
2022-10-26T15:35:20.317Z,1.17
2022-10-26T15:37:48.122Z,1.10
2022-10-26T15:40:15.521Z,1.30
2022-10-26T15:42:45.337Z,1.25
2022-10-26T15:45:31.275Z,1.13
2022-10-26T15:48:00.365Z,1.40
2022-10-26T15:50:28.948Z,1.40
2022-10-26T15:53:08.543Z,1.30
2022-10-26T15:55:36.174Z,1.50
2022-10-26T15:58:02.893Z,1.40
2022-10-26T16:00:29.663Z,1.60
2022-10-26T16:02:56.453Z,1.20
2022-10-26T16:05:23.297Z,1.38
2022-10-26T16:07:50.579Z,1.42
2022-10-26T16:10:22.415Z,1.70
2022-10-26T16:12:50.482Z,1.73
2022-10-26T16:15:24.675Z,1.90
2022-10-26T16:17:52.458Z,1.45
2022-10-26T16:20:22.872Z,1.70
2022-10-26T16:22:51.946Z,1.70
2022-10-26T16:25:23.248Z,1.73
2022-10-26T16:27:50.723Z,1.50
2022-10-26T16:30:18.552Z,1.67
2022-10-26T16:32:45.604Z,1.60
2022-10-26T16:35:13.247Z,1.60
2022-10-26T16:37:40.390Z,1.80
2022-10-26T16:40:08.499Z,2.00
2022-10-26T16:42:35.656Z,1.90
2022-10-26T16:45:03.242Z,1.95
2022-10-26T16:47:35.536Z,1.92
2022-10-26T16:50:04.021Z,1.98
2022-10-26T16:52:30.944Z,1.90
2022-10-26T16:54:57.833Z,1.98
2022-10-26T16:57:24.648Z,2.05
2022-10-26T16:59:51.778Z,2.08
2022-10-26T17:02:19.591Z,2.22
2022-10-26T17:04:46.996Z,2.55
2022-10-26T17:07:13.954Z,2.20
2022-10-26T17:09:41.260Z,2.65
2022-10-26T17:12:08.219Z,2.33
2022-10-26T17:14:35.060Z,2.08
2022-10-26T17:17:01.903Z,2.80
2022-10-26T17:19:28.838Z,2.63
2022-10-26T17:21:55.610Z,2.60
2022-10-26T17:24:22.443Z,3.00
2022-10-26T17:26:49.367Z,3.17
2022-10-26T17:29:16.802Z,3.42
2022-10-26T17:31:43.494Z,3.55
2022-10-26T17:34:10.302Z,3.13
2022-10-26T17:36:37.224Z,2.92
2022-10-26T17:39:04.257Z,2.88
2022-10-26T17:41:31.306Z,2.88
2022-10-26T17:43:58.129Z,2.40
2022-10-26T17:46:26.375Z,2.60
2022-10-26T17:49:00.584Z,3.28
2022-10-26T17:51:28.984Z,2.97
2022-10-26T17:53:57.102Z,2.95
2022-10-26T17:56:27.160Z,3.30
2022-10-26T17:58:56.092Z,3.35
2022-10-26T18:01:23.830Z,2.75
2022-10-26T18:03:51.618Z,2.45
2022-10-26T18:06:19.281Z,2.80
2022-10-26T18:08:46.387Z,3.20
2022-10-26T18:11:23.893Z,3.05
2022-10-26T18:13:56.491Z,2.70
2022-10-26T18:16:24.978Z,3.08
2022-10-26T18:19:02.843Z,3.10
2022-10-26T18:21:32.390Z,3.45
2022-10-26T18:23:59.365Z,3.45
2022-10-26T18:26:28.825Z,3.30
2022-10-26T18:28:57.052Z,3.55
2022-10-26T18:31:26.119Z,3.40
2022-10-26T18:34:01.732Z,3.20
2022-10-26T18:36:29.335Z,2.88
2022-10-26T18:38:56.593Z,2.65
2022-10-26T18:41:25.579Z,3.13
2022-10-26T18:43:56.658Z,3.30
2022-10-26T18:46:27.260Z,3.28
2022-10-26T18:48:58.485Z,3.08
2022-10-26T18:51:31.046Z,2.70
2022-10-26T18:53:59.067Z,2.80
2022-10-26T18:56:27.157Z,2.50
2022-10-26T18:58:58.327Z,2.88
2022-10-26T19:01:30.987Z,2.95
2022-10-26T19:04:03.820Z,4.05
2022-10-26T19:06:39.003Z,4.60
2022-10-26T19:09:07.507Z,3.70
2022-10-26T19:11:35.339Z,4.50
2022-10-26T19:14:02.333Z,6.20
2022-10-26T19:16:45.099Z,4.40
2022-10-26T19:19:12.457Z,4.50
2022-10-26T19:21:39.367Z,4.22
2022-10-26T19:24:12.803Z,4.47
2022-10-26T19:26:42.567Z,5.50
2022-10-26T19:29:15.136Z,5.25
2022-10-26T19:31:43.794Z,3.80
2022-10-26T19:34:12.819Z,3.80
2022-10-26T19:36:43.791Z,4.03
2022-10-26T19:39:10.756Z,4.75
2022-10-26T19:41:37.784Z,4.20
2022-10-26T19:44:04.843Z,3.83
2022-10-26T19:46:32.867Z,3.90
2022-10-26T19:49:01.558Z,3.83
2022-10-26T19:51:30.684Z,3.83
2022-10-26T19:54:03.118Z,3.65
2022-10-26T19:56:32.286Z,3.88
2022-10-26T19:58:59.301Z,4.63
2022-10-26T20:01:26.285Z,4.82
2022-10-26T20:03:53.432Z,4.50
2022-10-26T20:06:20.326Z,4.13
2022-10-26T20:08:48.972Z,3.50
2022-10-26T20:11:17.558Z,3.80
2022-10-26T20:13:46.019Z,3.92
2022-10-26T20:16:14.574Z,3.78
2022-10-26T20:18:44.396Z,3.67
2022-10-26T20:21:17.071Z,3.75
2022-10-26T20:23:45.019Z,3.70
2022-10-26T20:26:18.798Z,4.10
2022-10-26T20:28:48.913Z,4.50
2022-10-26T20:31:15.784Z,4.25
2022-10-26T20:33:42.824Z,3.75
2022-10-26T20:36:09.687Z,4.10
2022-10-26T20:38:36.962Z,3.80
2022-10-26T20:41:07.703Z,4.20
2022-10-26T20:43:39.737Z,4.53
2022-10-26T20:46:25.842Z,4.45
2022-10-26T20:48:53.898Z,4.50
2022-10-26T20:51:51.968Z,4.38
2022-10-26T20:54:41.777Z,4.07
2022-10-26T20:57:16.140Z,4.07
2022-10-26T20:59:49.863Z,4.10
2022-10-26T21:02:16.652Z,3.90
2022-10-26T21:04:43.451Z,4.20
2022-10-26T21:07:10.241Z,4.47
2022-10-26T21:09:37.048Z,4.32
2022-10-26T21:12:04.420Z,4.57
2022-10-26T21:14:31.361Z,4.18
2022-10-26T21:16:58.175Z,4.95
2022-10-26T21:19:25.059Z,5.90
2022-10-26T21:21:51.955Z,4.82
2022-10-26T21:24:18.970Z,4.65
2022-10-26T21:26:45.897Z,4.15
2022-10-26T21:29:13.243Z,4.35
2022-10-26T21:31:40.116Z,4.53
2022-10-26T21:34:07.363Z,4.72
2022-10-26T21:36:34.250Z,4.70
2022-10-26T21:39:00.996Z,4.78
2022-10-26T21:41:28.609Z,4.70
2022-10-26T21:44:03.510Z,4.93
2022-10-26T21:46:38.352Z,4.40
2022-10-26T21:49:05.619Z,4.90
2022-10-26T21:51:32.690Z,4.32
2022-10-26T21:53:59.439Z,4.60
2022-10-26T21:56:26.289Z,4.75
2022-10-26T21:58:52.979Z,5.38
2022-10-26T22:01:21.508Z,4.93
2022-10-26T22:03:49.469Z,4.80
2022-10-26T22:08:51.157Z,4.70
2022-10-26T22:11:21.263Z,4.20
2022-10-26T22:13:49.470Z,4.57
2022-10-26T22:16:23.348Z,4.47
2022-10-26T22:18:52.032Z,4.68
2022-10-26T22:21:20.499Z,4.68
2022-10-26T22:23:47.713Z,4.75
2022-10-26T22:26:20.552Z,4.70
2022-10-26T22:28:50.206Z,4.97
2022-10-26T22:31:20.381Z,4.47
2022-10-26T22:33:52.801Z,4.50
2022-10-26T22:36:19.923Z,4.68
2022-10-26T22:38:46.827Z,4.57
2022-10-26T22:41:13.845Z,4.78
2022-10-26T22:43:40.804Z,4.13
2022-10-26T22:46:30.195Z,4.00
2022-10-26T22:48:59.598Z,4.40
2022-10-26T22:51:29.475Z,4.30
2022-10-26T22:53:58.042Z,4.10
2022-10-26T22:58:58.446Z,3.90
2022-10-26T23:01:30.975Z,4.32
2022-10-26T23:03:58.120Z,4.22
2022-10-26T23:06:27.584Z,3.85
2022-10-26T23:08:54.645Z,4.22
2022-10-26T23:11:23.873Z,5.28
2022-10-26T23:13:54.223Z,4.90
2022-10-26T23:16:21.456Z,4.93
2022-10-26T23:18:49.138Z,4.95
2022-10-26T23:21:17.328Z,5.18
2022-10-26T23:23:44.610Z,4.93
2022-10-26T23:26:14.028Z,5.50
2022-10-26T23:28:41.936Z,5.03
2022-10-26T23:31:14.650Z,5.10
2022-10-26T23:33:41.409Z,4.72
2022-10-26T23:36:08.482Z,4.90
2022-10-26T23:38:35.309Z,4.93
2022-10-26T23:41:02.179Z,4.90
2022-10-26T23:43:29.004Z,4.60
2022-10-26T23:45:56.180Z,4.80
2022-10-26T23:48:23.327Z,4.78
2022-10-26T23:50:51.083Z,5.95
2022-10-26T23:53:20.919Z,5.43
2022-10-26T23:55:48.338Z,5.20
2022-10-26T23:58:16.428Z,5.70
